Pagina principale
METAR-TAF:

METAR-TAF

Aeroporti :

Aeroporto di Cuneo-Levaldigi

Cuneo, Italia

latitudine: 44-32-47N, longitudine: 007-37-20E, altezza: 386 m

Osservazione

Il bollettino è stato emesso 1 ora e 9 minuti fa, alle 17:50 UTC
Vento 1 kt da direzioni variabili
Temperature 2°C
Umidità 87%
Pressione 1014 hPa
Visibilità: 8000 m
Poco nuvoloso ad un'altezza di 300 ft
Nuvoloso ad un'altezza di 1000 ft

METAR: LIMZ 191750Z VRB01KT 8000 FEW003 BKN010 02/00 Q1014

Ora: 19:59 (18:59 UTC)

Previsione

Il bollettino è stato emesso 1 ora e 59 minuti fa, alle 17:00 UTC
Previsione valida dal 19 alle 18 UTC al 20 alle 18 UTC
Vento 5 kt da direzioni variabili
Visibilità: 7000 m
Nuvoloso ad un'altezza di 2000 ft
Temporaneamente
dal 20 alle 02 UTC al 20 alle 07 UTC
Visibilità: 2000 m
banchi di nebbia

TAF: LIMZ 191700Z 1918/2018 VRB05KT 7000 BKN020 TEMPO 2002/2007 2000 BCFG

Osservazioni e previsioni meteorologiche di più di 4000 aeroporti (messaggi METAR e TAF).

Le stazioni disponibili sono rappresentate dai dischi gialli e rossi sulla carta.

Puntare il mouse per vedere il nome della stazione.

Clicca sopra per visualizzare le osservazioni e previsioni meteorologiche.

Per cambiare la mappa : fare clic sui pulsanti verdi con una croce nera per ingrandire, il pulsante verde con un trattino per diminuire, o sulla freccia verde per le mappe adiacenti.


METAR-TAF: